Wetterdaten: Woche 09.05.05 - 15.05.05 (KW19)
Datum Zeit Temperatur Luftfeuchte Luftdruck Niederschlag Wind Richtung Sonne Solar Taupunkt Windchill
09.05.2005 00:00 7.8 C 83 % 1012.8 hPa 0.0 l/m 2.9 km/h (1 Bft) O-SO 0.00 h 0 W/m 5.1 C 7.4 C
09.05.2005 01:00 7.8 C 85 % 1012.3 hPa 0.0 l/m 0.0 km/h (0 Bft) N 0.00 h 0 W/m 5.5 C 7.8 C
09.05.2005 02:00 7.4 C 87 % 1012.3 hPa 0.0 l/m 0.0 km/h (0 Bft) N 0.00 h 0 W/m 5.4 C 7.4 C
09.05.2005 03:00 7.3 C 88 % 1011.6 hPa 0.0 l/m 0.0 km/h (0 Bft) N 0.00 h 0 W/m 5.5 C 7.3 C
09.05.2005 04:00 7.0 C 89 % 1011.3 hPa 0.0 l/m 0.0 km/h (0 Bft) N 0.00 h 0 W/m 5.3 C 7.0 C
09.05.2005 05:00 6.5 C 94 % 1011.4 hPa 0.0 l/m 0.0 km/h (0 Bft) N 0.00 h 0 W/m 5.6 C 6.5 C
09.05.2005 06:00 6.8 C 93 % 1012.1 hPa 0.0 l/m 0.0 km/h (0 Bft) N 0.00 h 16 W/m 5.8 C 6.8 C
09.05.2005 07:00 7.2 C 88 % 1012.4 hPa 0.0 l/m 1.3 km/h (1 Bft) W-NW 0.13 h 89 W/m 5.3 C 7.1 C
09.05.2005 08:00 7.8 C 81 % 1012.7 hPa 0.0 l/m 2.0 km/h (1 Bft) W-NW 0.20 h 140 W/m 4.7 C 7.6 C
09.05.2005 09:00 8.0 C 80 % 1013.3 hPa 0.0 l/m 13.2 km/h (3 Bft) NW 0.00 h 124 W/m 4.7 C 6.0 C
09.05.2005 10:00 9.3 C 72 % 1013.1 hPa 0.0 l/m 4.2 km/h (1 Bft) O-SO 0.60 h 541 W/m 4.4 C 8.9 C
09.05.2005 11:00 11.3 C 56 % 1012.8 hPa 0.0 l/m 21.8 km/h (4 Bft) W-NW 0.90 h 794 W/m 2.8 C 11.3 C
09.05.2005 12:00 12.4 C 47 % 1012.7 hPa 0.0 l/m 24.3 km/h (4 Bft) NW 0.80 h 768 W/m 1.4 C 12.4 C
09.05.2005 13:00 13.2 C 43 % 1012.6 hPa 0.0 l/m 22.6 km/h (4 Bft) W-NW 0.83 h 801 W/m 0.8 C 13.2 C
09.05.2005 14:00 14.2 C 35 % 1012.5 hPa 0.0 l/m 25.9 km/h (4 Bft) NW 0.67 h 670 W/m -1.0 C 14.2 C
09.05.2005 15:00 15.4 C 27 % 1012.3 hPa 0.0 l/m 23.5 km/h (4 Bft) W-NW 0.97 h 788 W/m -3.7 C 15.4 C
09.05.2005 16:00 15.2 C 30 % 1012.3 hPa 0.0 l/m 23.2 km/h (4 Bft) W-NW 0.80 h 498 W/m -2.2 C 15.2 C
09.05.2005 17:00 15.3 C 32 % 1012.3 hPa 0.0 l/m 16.7 km/h (3 Bft) NW 0.67 h 436 W/m -1.4 C 15.3 C
09.05.2005 18:00 15.6 C 31 % 1012.3 hPa 0.0 l/m 19.6 km/h (3 Bft) W-NW 1.00 h 390 W/m -1.8 C 15.6 C
09.05.2005 19:00 15.3 C 34 % 1012.3 hPa 0.0 l/m 5.5 km/h (1 Bft) W-NW 1.00 h 214 W/m -0.6 C 15.3 C
09.05.2005 20:00 13.9 C 39 % 1012.5 hPa 0.0 l/m 3.0 km/h (1 Bft) W-NW 0.67 h 48 W/m 0.1 C 13.9 C
09.05.2005 21:00 11.6 C 48 % 1013.7 hPa 0.0 l/m 0.2 km/h (0 Bft) NO 0.00 h 0 W/m 1.0 C 11.6 C
09.05.2005 22:00 10.1 C 60 % 1014.0 hPa 0.0 l/m 0.3 km/h (0 Bft) O 0.00 h 0 W/m 2.6 C 10.1 C
09.05.2005 23:00 9.5 C 66 % 1014.1 hPa 0.0 l/m 0.1 km/h (0 Bft) N 0.00 h 0 W/m 3.5 C 9.5 C
10.05.2005 00:00 8.8 C 64 % 1014.2 hPa 0.0 l/m 0.6 km/h (0 Bft) NO 0.00 h 0 W/m 2.3 C 8.7 C
10.05.2005 01:00 8.1 C 70 % 1014.3 hPa 0.0 l/m 0.3 km/h (0 Bft) O-NO 0.00 h 0 W/m 2.9 C 8.1 C
10.05.2005 02:00 7.5 C 75 % 1014.4 hPa 0.0 l/m 0.0 km/h (0 Bft) N 0.00 h 0 W/m 3.3 C 7.5 C
10.05.2005 03:00 7.1 C 76 % 1014.5 hPa 0.0 l/m 0.0 km/h (0 Bft) N 0.00 h 0 W/m 3.1 C 7.1 C
10.05.2005 04:00 6.3 C 81 % 1014.6 hPa 0.0 l/m 0.0 km/h (0 Bft) N 0.00 h 0 W/m 3.3 C 6.3 C
10.05.2005 05:00 5.7 C 87 % 1014.6 hPa 0.0 l/m 0.0 km/h (0 Bft) N 0.00 h 0 W/m 3.7 C 5.7 C
10.05.2005 06:00 5.6 C 91 % 1014.7 hPa 0.0 l/m 0.0 km/h (0 Bft) N 0.00 h 24 W/m 4.3 C 5.6 C
10.05.2005 07:00 6.7 C 85 % 1014.5 hPa 0.0 l/m 0.3 km/h (0 Bft) W-NW 0.27 h 119 W/m 4.4 C 6.7 C
10.05.2005 08:00 8.0 C 75 % 1014.3 hPa 0.0 l/m 1.8 km/h (1 Bft) W-NW 0.73 h 237 W/m 3.9 C 7.8 C
10.05.2005 09:00 9.8 C 66 % 1014.1 hPa 0.0 l/m 0.6 km/h (0 Bft) W-NW 0.97 h 403 W/m 3.7 C 9.8 C
10.05.2005 10:00 12.3 C 56 % 1013.7 hPa 0.0 l/m 3.9 km/h (1 Bft) O-SO 1.00 h 631 W/m 3.7 C 12.3 C
10.05.2005 11:00 13.9 C 51 % 1013.5 hPa 0.0 l/m 6.4 km/h (2 Bft) O-SO 1.00 h 791 W/m 3.9 C 13.9 C
10.05.2005 12:00 14.3 C 45 % 1013.5 hPa 0.0 l/m 6.0 km/h (2 Bft) O-SO 0.47 h 486 W/m 2.6 C 14.3 C
10.05.2005 13:00 14.2 C 46 % 1013.5 hPa 0.0 l/m 3.8 km/h (1 Bft) W-NW 0.40 h 353 W/m 2.7 C 14.2 C
10.05.2005 14:00 14.5 C 49 % 1013.4 hPa 0.0 l/m 3.1 km/h (1 Bft) W-NW 0.33 h 383 W/m 3.9 C 14.5 C
10.05.2005 15:00 14.9 C 44 % 1013.4 hPa 0.0 l/m 11.1 km/h (2 Bft) W-NW 0.67 h 429 W/m 2.9 C 14.9 C
10.05.2005 16:00 13.4 C 54 % 1014.1 hPa 0.0 l/m 10.2 km/h (2 Bft) O-SO 0.00 h 163 W/m 4.4 C 13.4 C
10.05.2005 17:00 13.4 C 55 % 1014.6 hPa 0.0 l/m 15.4 km/h (3 Bft) O-SO 0.65 h 292 W/m 4.4 C 13.4 C
10.05.2005 18:00 13.8 C 53 % 1014.6 hPa 0.0 l/m 8.1 km/h (2 Bft) O-SO 0.53 h 210 W/m 4.3 C 13.8 C
10.05.2005 19:00 12.1 C 57 % 1015.7 hPa 0.0 l/m 5.7 km/h (1 Bft) N-NO 0.07 h 75 W/m 3.8 C 12.1 C
10.05.2005 20:00 10.5 C 65 % 1016.5 hPa 0.0 l/m 6.0 km/h (2 Bft) O 0.00 h 11 W/m 4.2 C 10.2 C
10.05.2005 21:00 9.2 C 75 % 1017.3 hPa 0.0 l/m 3.8 km/h (1 Bft) O-SO 0.00 h 0 W/m 5.1 C 8.8 C
10.05.2005 22:00 7.8 C 84 % 1018.5 hPa 0.0 l/m 0.0 km/h (0 Bft) N 0.00 h 0 W/m 5.2 C 7.8 C
10.05.2005 23:00 6.4 C 91 % 1018.7 hPa 0.0 l/m 1.6 km/h (1 Bft) O-SO 0.00 h 0 W/m 5.0 C 6.3 C
11.05.2005 00:00 5.2 C 97 % 1019.8 hPa 0.0 l/m 2.9 km/h (1 Bft) O-SO 0.00 h 0 W/m 4.7 C 4.8 C
11.05.2005 01:00 4.1 C 99 % 1020.1 hPa 0.0 l/m 0.0 km/h (0 Bft) N 0.00 h 0 W/m 4.0 C 4.1 C
11.05.2005 02:00 3.1 C 100 % 1020.2 hPa 0.0 l/m 0.0 km/h (0 Bft) N 0.00 h 0 W/m 3.1 C 3.1 C
11.05.2005 03:00 2.3 C 100 % 1020.3 hPa 0.0 l/m 0.0 km/h (0 Bft) N 0.00 h 0 W/m 2.3 C 2.3 C
11.05.2005 04:00 1.6 C 100 % 1020.4 hPa 0.0 l/m 0.0 km/h (0 Bft) N 0.00 h 0 W/m 1.6 C 1.6 C
11.05.2005 05:00 1.1 C 100 % 1020.7 hPa 0.0 l/m 0.0 km/h (0 Bft) N 0.00 h 0 W/m 1.1 C 1.1 C
11.05.2005 06:00 0.9 C 100 % 1021.6 hPa 0.0 l/m 0.0 km/h (0 Bft) N 0.17 h 38 W/m 0.9 C 0.9 C
11.05.2005 07:00 2.9 C 99 % 1021.3 hPa 0.0 l/m 1.5 km/h (1 Bft) O-SO 1.00 h 226 W/m 2.8 C 2.8 C
11.05.2005 08:00 5.1 C 91 % 1021.1 hPa 0.0 l/m 0.3 km/h (0 Bft) O-SO 1.00 h 402 W/m 3.7 C 5.1 C
11.05.2005 09:00 7.8 C 78 % 1021.2 hPa 0.0 l/m 1.9 km/h (1 Bft) W-NW 1.00 h 556 W/m 4.2 C 7.6 C
11.05.2005 10:00 11.6 C 60 % 1021.1 hPa 0.0 l/m 11.9 km/h (2 Bft) O-SO 1.00 h 692 W/m 3.9 C 11.5 C
11.05.2005 11:00 13.1 C 45 % 1020.9 hPa 0.0 l/m 16.9 km/h (3 Bft) O-SO 1.00 h 789 W/m 1.4 C 13.1 C
11.05.2005 12:00 14.0 C 42 % 1020.8 hPa 0.0 l/m 18.3 km/h (3 Bft) O-SO 1.00 h 849 W/m 1.3 C 14.0 C
11.05.2005 13:00 14.8 C 42 % 1019.7 hPa 0.0 l/m 13.8 km/h (3 Bft) O-SO 1.00 h 864 W/m 2.1 C 14.8 C
11.05.2005 14:00 15.9 C 38 % 1019.5 hPa 0.0 l/m 10.9 km/h (2 Bft) O-NO 0.90 h 769 W/m 1.6 C 15.9 C
11.05.2005 15:00 16.3 C 35 % 1019.4 hPa 0.0 l/m 15.1 km/h (3 Bft) O-SO 1.00 h 746 W/m 0.7 C 16.3 C
11.05.2005 16:00 16.5 C 30 % 1018.6 hPa 0.0 l/m 11.8 km/h (2 Bft) O-SO 0.97 h 632 W/m -1.3 C 16.5 C
11.05.2005 17:00 16.1 C 32 % 1018.4 hPa 0.0 l/m 17.4 km/h (3 Bft) O-SO 1.00 h 527 W/m -0.8 C 16.1 C
11.05.2005 18:00 15.5 C 32 % 1018.5 hPa 0.0 l/m 14.7 km/h (3 Bft) O-SO 1.00 h 380 W/m -1.0 C 15.5 C
11.05.2005 19:00 14.3 C 33 % 1018.7 hPa 0.0 l/m 13.6 km/h (3 Bft) O-SO 0.98 h 210 W/m -1.8 C 14.3 C
11.05.2005 20:00 12.4 C 35 % 1018.9 hPa 0.0 l/m 3.4 km/h (1 Bft) O-SO 0.70 h 53 W/m -2.5 C 12.4 C
11.05.2005 21:00 9.3 C 48 % 1019.5 hPa 0.0 l/m 3.8 km/h (1 Bft) O-SO 0.00 h 0 W/m -1.3 C 9.2 C
11.05.2005 22:00 8.1 C 55 % 1020.6 hPa 0.0 l/m 1.2 km/h (1 Bft) O-SO 0.00 h 0 W/m -0.5 C 7.9 C
11.05.2005 23:00 8.6 C 54 % 1020.5 hPa 0.0 l/m 0.6 km/h (0 Bft) N-NO 0.00 h 0 W/m -0.3 C 8.6 C
12.05.2005 00:00 7.9 C 57 % 1020.6 hPa 0.0 l/m 1.5 km/h (1 Bft) N 0.00 h 0 W/m -0.0 C 7.8 C
12.05.2005 01:00 7.4 C 59 % 1020.0 hPa 0.0 l/m 2.8 km/h (1 Bft) N 0.00 h 0 W/m -0.2 C 7.0 C
12.05.2005 02:00 6.3 C 64 % 1019.8 hPa 0.0 l/m 0.1 km/h (0 Bft) N 0.00 h 0 W/m 0.1 C 6.3 C
12.05.2005 03:00 6.0 C 66 % 1019.8 hPa 0.0 l/m 0.2 km/h (0 Bft) N 0.00 h 0 W/m 0.2 C 6.0 C
12.05.2005 04:00 5.5 C 68 % 1019.9 hPa 0.0 l/m 0.2 km/h (0 Bft) N 0.00 h 0 W/m 0.1 C 5.5 C
12.05.2005 05:00 5.1 C 70 % 1019.9 hPa 0.0 l/m 1.2 km/h (1 Bft) NO 0.00 h 0 W/m 0.1 C 4.9 C
12.05.2005 06:00 4.4 C 77 % 1019.7 hPa 0.0 l/m 0.6 km/h (0 Bft) O-SO 0.30 h 42 W/m 0.6 C 4.3 C
12.05.2005 07:00 6.8 C 67 % 1019.2 hPa 0.0 l/m 1.2 km/h (1 Bft) N-NO 1.00 h 240 W/m 1.0 C 6.6 C
12.05.2005 08:00 9.5 C 56 % 1018.3 hPa 0.0 l/m 6.4 km/h (2 Bft) NO 1.00 h 404 W/m 1.2 C 9.2 C
12.05.2005 09:00 11.8 C 52 % 1018.0 hPa 0.0 l/m 9.6 km/h (2 Bft) O 0.93 h 527 W/m 2.1 C 11.8 C
12.05.2005 10:00 13.8 C 47 % 1017.3 hPa 0.0 l/m 17.8 km/h (3 Bft) O-SO 0.97 h 674 W/m 2.7 C 13.8 C
12.05.2005 11:00 15.4 C 44 % 1016.5 hPa 0.0 l/m 11.1 km/h (2 Bft) NO 1.00 h 736 W/m 3.2 C 15.4 C
12.05.2005 12:00 17.2 C 42 % 1016.0 hPa 0.0 l/m 12.2 km/h (2 Bft) O 1.00 h 875 W/m 4.0 C 17.2 C
12.05.2005 13:00 18.6 C 39 % 1015.0 hPa 0.0 l/m 13.1 km/h (3 Bft) O-SO 1.00 h 897 W/m 4.2 C 18.6 C
12.05.2005 14:00 18.9 C 38 % 1014.9 hPa 0.0 l/m 16.4 km/h (3 Bft) O-SO 1.00 h 648 W/m 4.4 C 18.9 C
12.05.2005 15:00 19.3 C 37 % 1014.2 hPa 0.0 l/m 22.2 km/h (4 Bft) O-SO 1.00 h 665 W/m 4.4 C 19.3 C
12.05.2005 16:00 19.9 C 33 % 1013.8 hPa 0.0 l/m 17.9 km/h (3 Bft) O-SO 1.00 h 653 W/m 3.0 C 19.9 C
12.05.2005 17:00 19.8 C 36 % 1013.3 hPa 0.0 l/m 14.5 km/h (3 Bft) O-SO 0.87 h 367 W/m 4.4 C 19.8 C
12.05.2005 18:00 19.5 C 36 % 1012.8 hPa 0.0 l/m 16.4 km/h (3 Bft) O-SO 1.00 h 298 W/m 3.9 C 19.5 C
12.05.2005 19:00 18.4 C 36 % 1012.9 hPa 0.0 l/m 5.6 km/h (1 Bft) O-SO 1.00 h 174 W/m 3.2 C 18.4 C
12.05.2005 20:00 16.5 C 37 % 1014.2 hPa 0.0 l/m 1.4 km/h (1 Bft) NO 0.38 h 36 W/m 1.9 C 16.5 C
12.05.2005 21:00 15.1 C 39 % 1014.4 hPa 0.0 l/m 3.5 km/h (1 Bft) N-NO 0.00 h 0 W/m 1.4 C 15.1 C
12.05.2005 22:00 13.9 C 42 % 1014.6 hPa 0.0 l/m 3.3 km/h (1 Bft) N 0.00 h 0 W/m 1.1 C 13.9 C
12.05.2005 23:00 13.1 C 43 % 1015.4 hPa 0.0 l/m 4.0 km/h (1 Bft) NO 0.00 h 0 W/m 0.7 C 13.1 C
13.05.2005 00:00 12.3 C 45 % 1015.8 hPa 0.0 l/m 3.1 km/h (1 Bft) O-SO 0.00 h 0 W/m 0.6 C 12.3 C
13.05.2005 01:00 11.5 C 49 % 1015.9 hPa 0.0 l/m 0.5 km/h (0 Bft) NO 0.00 h 0 W/m 1.1 C 11.5 C
13.05.2005 02:00 10.8 C 54 % 1016.0 hPa 0.0 l/m 1.8 km/h (1 Bft) O 0.00 h 0 W/m 1.8 C 10.8 C
13.05.2005 03:00 9.8 C 65 % 1016.2 hPa 0.0 l/m 1.8 km/h (1 Bft) O-SO 0.00 h 0 W/m 3.4 C 9.7 C
13.05.2005 04:00 9.5 C 71 % 1017.0 hPa 0.0 l/m 4.1 km/h (1 Bft) O-SO 0.00 h 0 W/m 4.5 C 9.2 C
13.05.2005 05:00 9.2 C 74 % 1017.3 hPa 0.0 l/m 4.2 km/h (1 Bft) O-SO 0.00 h 1 W/m 4.7 C 8.9 C
13.05.2005 06:00 9.0 C 78 % 1017.4 hPa 0.0 l/m 2.3 km/h (1 Bft) O-SO 0.00 h 11 W/m 5.4 C 8.8 C
13.05.2005 07:00 9.6 C 80 % 1018.3 hPa 0.0 l/m 0.4 km/h (0 Bft) O-SO 0.00 h 59 W/m 6.3 C 9.6 C
13.05.2005 08:00 9.8 C 81 % 1018.2 hPa 0.0 l/m 0.0 km/h (0 Bft) N 0.00 h 99 W/m 6.7 C 9.8 C
13.05.2005 09:00 10.5 C 83 % 1018.1 hPa 0.0 l/m 0.0 km/h (0 Bft) N 0.00 h 138 W/m 7.7 C 10.5 C
13.05.2005 10:00 11.8 C 72 % 1017.3 hPa 0.0 l/m 1.5 km/h (1 Bft) O-SO 0.13 h 276 W/m 6.8 C 11.8 C
13.05.2005 11:00 12.5 C 69 % 1016.8 hPa 0.0 l/m 0.6 km/h (0 Bft) W 0.00 h 242 W/m 7.0 C 12.5 C
13.05.2005 12:00 13.7 C 64 % 1016.7 hPa 0.0 l/m 1.6 km/h (1 Bft) W-NW 0.57 h 513 W/m 6.9 C 13.7 C
13.05.2005 13:00 14.8 C 60 % 1016.5 hPa 0.0 l/m 1.6 km/h (1 Bft) W-NW 0.27 h 402 W/m 7.0 C 14.8 C
13.05.2005 14:00 17.7 C 52 % 1015.5 hPa 0.0 l/m 5.2 km/h (1 Bft) W-NW 1.00 h 813 W/m 7.8 C 17.7 C
13.05.2005 15:00 20.6 C 47 % 1014.4 hPa 0.0 l/m 2.5 km/h (1 Bft) NW 1.00 h 765 W/m 8.7 C 20.6 C
13.05.2005 16:00 21.8 C 40 % 1013.5 hPa 0.0 l/m 4.3 km/h (1 Bft) W-NW 1.00 h 659 W/m 7.7 C 21.8 C
13.05.2005 17:00 22.6 C 38 % 1012.5 hPa 0.0 l/m 2.4 km/h (1 Bft) W-NW 1.00 h 504 W/m 7.5 C 22.6 C
13.05.2005 18:00 21.2 C 43 % 1012.6 hPa 0.0 l/m 8.0 km/h (2 Bft) O-SO 1.00 h 374 W/m 8.1 C 21.2 C
13.05.2005 19:00 20.3 C 46 % 1012.4 hPa 0.0 l/m 0.8 km/h (0 Bft) O 1.00 h 181 W/m 8.3 C 20.3 C
13.05.2005 20:00 17.8 C 57 % 1012.2 hPa 0.0 l/m 2.9 km/h (1 Bft) O-SO 0.58 h 44 W/m 9.2 C 17.8 C
13.05.2005 21:00 15.9 C 65 % 1013.3 hPa 0.0 l/m 1.6 km/h (1 Bft) O-SO 0.00 h 0 W/m 9.3 C 15.9 C
13.05.2005 22:00 14.5 C 74 % 1013.5 hPa 0.0 l/m 0.0 km/h (0 Bft) N 0.00 h 0 W/m 9.8 C 14.5 C
13.05.2005 23:00 12.4 C 82 % 1013.3 hPa 0.0 l/m 0.8 km/h (0 Bft) O-SO 0.00 h 0 W/m 9.5 C 12.4 C
14.05.2005 00:00 11.6 C 86 % 1012.9 hPa 0.0 l/m 0.2 km/h (0 Bft) SO 0.00 h 0 W/m 9.4 C 11.6 C
14.05.2005 01:00 10.8 C 90 % 1012.9 hPa 0.0 l/m 0.5 km/h (0 Bft) SO 0.00 h 0 W/m 9.3 C 10.8 C
14.05.2005 02:00 10.2 C 92 % 1013.0 hPa 0.0 l/m 0.0 km/h (0 Bft) N 0.00 h 0 W/m 8.9 C 10.2 C
14.05.2005 03:00 9.7 C 96 % 1012.5 hPa 0.0 l/m 0.0 km/h (0 Bft) N 0.00 h 0 W/m 9.0 C 9.7 C
14.05.2005 04:00 9.7 C 97 % 1012.0 hPa 0.0 l/m 0.0 km/h (0 Bft) N 0.00 h 0 W/m 9.3 C 9.7 C
14.05.2005 05:00 9.7 C 97 % 1012.0 hPa 0.0 l/m 0.0 km/h (0 Bft) N 0.00 h 5 W/m 9.3 C 9.7 C
14.05.2005 06:00 9.6 C 97 % 1011.6 hPa 0.0 l/m 0.0 km/h (0 Bft) N 0.00 h 24 W/m 9.1 C 9.6 C
14.05.2005 07:00 10.6 C 92 % 1011.8 hPa 0.0 l/m 0.0 km/h (0 Bft) N 0.00 h 74 W/m 9.3 C 10.6 C
14.05.2005 08:00 11.9 C 89 % 1011.7 hPa 0.0 l/m 0.5 km/h (0 Bft) SO 0.00 h 153 W/m 10.1 C 11.9 C
14.05.2005 09:00 12.8 C 83 % 1011.6 hPa 0.0 l/m 0.0 km/h (0 Bft) N 0.00 h 164 W/m 9.9 C 12.8 C
14.05.2005 10:00 13.7 C 77 % 1011.5 hPa 0.0 l/m 1.2 km/h (1 Bft) S-SW 0.00 h 237 W/m 9.8 C 13.7 C
14.05.2005 11:00 15.4 C 73 % 1011.2 hPa 0.0 l/m 1.6 km/h (1 Bft) SO 0.00 h 313 W/m 10.5 C 15.4 C
14.05.2005 12:00 16.3 C 70 % 1011.3 hPa 0.0 l/m 5.0 km/h (1 Bft) W-NW 0.00 h 205 W/m 10.8 C 16.3 C
14.05.2005 13:00 15.0 C 80 % 1012.3 hPa 0.3 l/m 19.8 km/h (3 Bft) NW 0.00 h 78 W/m 11.4 C 15.0 C
14.05.2005 14:00 14.0 C 88 % 1012.7 hPa 0.3 l/m 10.9 km/h (2 Bft) W-NW 0.00 h 55 W/m 11.9 C 14.0 C
14.05.2005 15:00 13.6 C 91 % 1013.6 hPa 0.3 l/m 3.3 km/h (1 Bft) W-NW 0.00 h 90 W/m 12.2 C 13.6 C
14.05.2005 16:00 13.9 C 94 % 1013.5 hPa 0.3 l/m 1.1 km/h (0 Bft) SO 0.00 h 102 W/m 13.0 C 13.9 C
14.05.2005 17:00 14.0 C 90 % 1013.5 hPa 0.0 l/m 7.5 km/h (2 Bft) SO 0.00 h 130 W/m 12.4 C 14.0 C
14.05.2005 18:00 14.0 C 85 % 1013.5 hPa 0.0 l/m 5.7 km/h (1 Bft) S-SW 0.07 h 92 W/m 11.6 C 14.0 C
14.05.2005 19:00 13.8 C 82 % 1013.5 hPa 0.0 l/m 6.3 km/h (2 Bft) O-SO 0.00 h 20 W/m 10.7 C 13.8 C
14.05.2005 20:00 13.3 C 86 % 1014.4 hPa 0.0 l/m 6.1 km/h (2 Bft) W-NW 0.00 h 3 W/m 11.0 C 13.3 C
14.05.2005 21:00 13.0 C 86 % 1014.7 hPa 0.0 l/m 2.1 km/h (1 Bft) W-NW 0.00 h 0 W/m 10.7 C 13.0 C
14.05.2005 22:00 12.2 C 87 % 1015.8 hPa 0.0 l/m 1.7 km/h (1 Bft) S 0.00 h 0 W/m 10.2 C 12.2 C
14.05.2005 23:00 11.4 C 91 % 1015.9 hPa 0.0 l/m 0.0 km/h (0 Bft) N 0.00 h 0 W/m 9.9 C 11.4 C
15.05.2005 00:00 10.9 C 94 % 1017.0 hPa 0.0 l/m 0.0 km/h (0 Bft) N 0.00 h 0 W/m 10.0 C 10.9 C
15.05.2005 01:00 10.6 C 97 % 1017.1 hPa 0.0 l/m 0.0 km/h (0 Bft) N 0.00 h 0 W/m 10.1 C 10.6 C
15.05.2005 02:00 11.1 C 94 % 1016.9 hPa 0.0 l/m 0.0 km/h (0 Bft) N 0.00 h 0 W/m 10.2 C 11.1 C
15.05.2005 03:00 10.7 C 97 % 1017.0 hPa 0.6 l/m 0.0 km/h (0 Bft) N 0.00 h 0 W/m 10.3 C 10.7 C
15.05.2005 04:00 10.5 C 100 % 1017.1 hPa 0.0 l/m 0.0 km/h (0 Bft) N 0.00 h 0 W/m 10.5 C 10.5 C
15.05.2005 05:00 10.5 C 100 % 1017.1 hPa 1.0 l/m 0.0 km/h (0 Bft) N 0.00 h 2 W/m 10.5 C 10.5 C
15.05.2005 06:00 10.5 C 100 % 1017.1 hPa 0.0 l/m 0.0 km/h (0 Bft) N 0.00 h 21 W/m 10.5 C 10.5 C
15.05.2005 07:00 11.2 C 98 % 1017.0 hPa 0.0 l/m 0.0 km/h (0 Bft) N 0.00 h 80 W/m 10.9 C 11.2 C
15.05.2005 08:00 12.5 C 92 % 1016.8 hPa 0.0 l/m 0.0 km/h (0 Bft) N 0.85 h 341 W/m 11.3 C 12.5 C
15.05.2005 09:00 13.6 C 86 % 1016.6 hPa 0.0 l/m 0.0 km/h (0 Bft) N 0.37 h 259 W/m 11.2 C 13.6 C
15.05.2005 10:00 13.4 C 82 % 1016.1 hPa 0.3 l/m 0.2 km/h (0 Bft) W-NW 0.00 h 207 W/m 10.3 C 13.4 C
15.05.2005 11:00 14.0 C 79 % 1015.7 hPa 0.0 l/m 15.9 km/h (3 Bft) W-NW 0.73 h 429 W/m 10.5 C 14.0 C
15.05.2005 12:00 14.9 C 73 % 1015.5 hPa 0.0 l/m 12.2 km/h (2 Bft) W-NW 0.20 h 296 W/m 10.1 C 14.9 C
15.05.2005 13:00 15.3 C 70 % 1015.4 hPa 0.0 l/m 9.1 km/h (2 Bft) W-NW 0.00 h 279 W/m 9.7 C 15.3 C
15.05.2005 14:00 16.3 C 62 % 1015.3 hPa 0.0 l/m 18.8 km/h (3 Bft) W-NW 0.20 h 409 W/m 8.9 C 16.3 C
15.05.2005 15:00 15.2 C 72 % 1015.1 hPa 0.0 l/m 21.3 km/h (4 Bft) W-NW 0.50 h 405 W/m 10.0 C 15.2 C
15.05.2005 16:00 17.9 C 52 % 1014.0 hPa 0.0 l/m 27.4 km/h (4 Bft) NW 0.80 h 598 W/m 8.0 C 17.9 C
15.05.2005 17:00 18.6 C 51 % 1013.9 hPa 0.0 l/m 22.7 km/h (4 Bft) NW 0.97 h 555 W/m 8.1 C 18.6 C
15.05.2005 18:00 17.6 C 49 % 1014.1 hPa 0.0 l/m 24.1 km/h (4 Bft) W-NW 0.70 h 286 W/m 6.9 C 17.6 C
15.05.2005 19:00 17.9 C 50 % 1014.0 hPa 0.0 l/m 22.2 km/h (4 Bft) W-NW 1.00 h 257 W/m 7.2 C 17.9 C
15.05.2005 20:00 15.9 C 58 % 1014.3 hPa 0.0 l/m 5.9 km/h (2 Bft) W-NW 0.40 h 46 W/m 7.6 C 15.9 C
15.05.2005 21:00 13.1 C 76 % 1014.7 hPa 0.0 l/m 2.7 km/h (1 Bft) SO 0.00 h 0 W/m 8.9 C 13.1 C
15.05.2005 22:00 11.0 C 85 % 1014.9 hPa 0.0 l/m 4.9 km/h (1 Bft) O-SO 0.00 h 0 W/m 8.6 C 11.0 C
15.05.2005 23:00 9.3 C 92 % 1015.2 hPa 0.0 l/m 0.3 km/h (0 Bft) O-SO 0.00 h 0 W/m 8.0 C 9.3 C
Min-Datum _ 11.05.05 09.05.05 14.05.05 - 09.05.05 - - - 09.05.05 11.05.05
_ Min-Zeit 06:19 15:18 07:04 - 00:04 - - - 15:42 06:19
Minimum _ 0.5 C 20 % 1010.9 hPa - 0.0 km/h (0 Bft) - - - -8.5 C 0.5 C
Max-Datum _ 13.05.05 11.05.05 11.05.05 15.05.05 09.05.05 - 10.05.05 12.05.05 14.05.05 13.05.05
_ Max-Zeit 17:21 01:43 08:43 05:28 15:42 - 17:33 11:32 16:39 17:21
Maximum _ 23.3 C 100 % 1021.9 hPa 1.0 l/m 44.2 km/h
W-NW (6 Bft)
- 0.05 h 1038 W/m 13.5 C 23.3 C
Durchschnitt _ 11.9 C 67 % 1015.5 hPa #3.3 l/m 5.7 km/h (1 Bft) O-SO #57:49 h 344 W/m 5.1 C 11.8 C

Durchschnitt Minimum Temp.11.2 C
Durchschnitt Maximum Temp.12.5 C
© Kaiko 2005